Time;durP1;ratioP1;P1;durP2;ratioP2;P2;SDS_P1;SDS_P2;PMS_P1;PMS_P2;Temp;Humidity;BMP_temperature;BMP_pressure;BME280_temperature;BME280_humidity;BME280_pressure;Samples;Min_cycle;Max_cycle;Signal;HPM_P1;HPM_P2
2022/03/02 15:07:07;;;;;;;15.60;9.83;;;;;;;10.56;37.91;102098.38;4977110;22;1492451;-72
2022/03/02 15:09:32;;;;;;;16.93;10.13;;;;;;;10.53;37.61;102096.03;5049254;28;20048;-76
2022/03/02 15:11:57;;;;;;;19.87;13.97;;;;;;;10.44;38.77;102097.94;5046352;28;20033;-78
2022/03/02 15:17:10;;;;;;;27.60;20.90;;;;;;;10.43;38.97;102090.81;5046970;28;20118;-76
2022/03/02 15:19:38;;;;;;;18.93;12.73;;;;;;;10.46;39.77;102095.91;5047237;28;20064;-74
2022/03/02 15:22:06;;;;;;;18.03;12.13;;;;;;;10.38;38.49;102091.38;5047503;28;21233;-71
2022/03/02 15:24:35;;;;;;;17.90;11.60;;;;;;;10.43;42.47;102085.41;5047371;28;20933;-71
2022/03/02 15:27:01;;;;;;;18.17;11.90;;;;;;;10.51;42.97;102088.06;5034991;28;20106;-75
2022/03/02 15:29:30;;;;;;;18.43;11.23;;;;;;;10.53;40.83;102085.19;5031802;28;20445;-73
2022/03/02 15:32:03;;;;;;;19.93;12.20;;;;;;;10.57;41.87;102079.22;5033054;28;20052;-73
2022/03/02 15:34:34;;;;;;;18.67;11.63;;;;;;;10.65;42.17;102083.72;5033004;28;20037;-72
2022/03/02 15:37:01;;;;;;;18.77;11.30;;;;;;;10.66;43.59;102077.25;5029314;28;20049;-74
2022/03/02 15:39:34;;;;;;;19.47;11.70;;;;;;;10.74;43.02;102079.06;5030302;28;20590;-73
2022/03/02 15:42:13;;;;;;;18.90;12.10;;;;;;;10.91;40.71;102064.34;5030664;28;20036;-72
2022/03/02 15:45:16;;;;;;;19.00;11.90;;;;;;;10.82;39.02;102073.56;5014922;28;20048;-73
2022/03/02 15:47:47;;;;;;;19.20;11.87;;;;;;;10.72;41.47;102062.16;5033471;28;20029;-72
2022/03/02 15:50:16;;;;;;;19.77;12.57;;;;;;;10.65;39.39;102062.06;5033859;28;20369;-73
2022/03/02 15:52:43;;;;;;;19.07;12.00;;;;;;;10.68;38.55;102058.97;5022397;28;20337;-74
2022/03/02 15:55:14;;;;;;;19.50;11.23;;;;;;;10.81;40.27;102061.03;5029638;28;20095;-73
2022/03/02 15:57:57;;;;;;;18.70;11.27;;;;;;;10.81;41.07;102058.31;5008805;22;20074;-75
2022/03/02 16:00:25;;;;;;;18.37;11.60;;;;;;;10.70;37.67;102047.94;4936992;28;20047;-71
2022/03/02 16:05:11;;;;;;;18.87;11.60;;;;;;;10.63;39.19;102032.41;5090460;22;20229;-88
2022/03/02 16:07:38;;;;;;;18.20;12.17;;;;;;;10.66;38.11;102041.19;5081632;28;20154;-87
2022/03/02 16:10:10;;;;;;;17.33;10.70;;;;;;;10.74;41.34;102041.13;5083194;28;20032;-93
2022/03/02 16:12:53;;;;;;;18.57;11.50;;;;;;;10.90;40.73;102034.72;5067845;28;20058;-93
2022/03/02 16:19:40;;;;;;;18.10;11.43;;;;;;;11.24;38.74;102050.44;5127563;27;20377;-78
2022/03/02 16:22:06;;;;;;;17.57;10.60;;;;;;;11.23;36.49;102043.34;5113765;28;20109;-77
2022/03/02 16:24:42;;;;;;;17.43;11.20;;;;;;;11.16;35.90;102047.81;5094251;28;20024;-78
2022/03/02 16:27:24;;;;;;;16.87;10.40;;;;;;;10.91;35.90;102047.25;5113990;28;20024;-81
2022/03/02 16:29:54;;;;;;;17.30;10.90;;;;;;;10.64;37.69;102039.50;5114826;28;20035;-85
2022/03/02 16:32:21;;;;;;;17.37;11.23;;;;;;;10.47;36.44;102032.53;5104482;28;20107;-84
2022/03/02 16:34:47;;;;;;;16.87;10.73;;;;;;;10.34;37.41;102030.41;5116141;28;20035;-83
2022/03/02 16:37:18;;;;;;;17.13;11.37;;;;;;;10.14;36.71;102030.06;5100622;28;20024;-84
2022/03/02 16:39:44;;;;;;;18.53;11.73;;;;;;;9.92;39.69;102024.44;5083404;28;20031;-81
2022/03/02 16:42:10;;;;;;;16.77;10.87;;;;;;;9.79;39.54;102029.56;5112807;28;20180;-84
2022/03/02 16:44:36;;;;;;;18.70;11.03;;;;;;;9.73;40.42;102031.13;5102172;28;20350;-81
2022/03/02 16:47:04;;;;;;;17.37;10.60;;;;;;;9.52;43.99;102034.47;5116616;28;20035;-80
2022/03/02 16:49:30;;;;;;;19.33;11.20;;;;;;;9.41;40.57;102032.13;5101703;28;20020;-81
2022/03/02 16:51:56;;;;;;;18.30;11.40;;;;;;;9.31;40.92;102026.91;5101136;28;20020;-81
2022/03/02 16:54:21;;;;;;;18.43;11.30;;;;;;;9.24;41.63;102034.06;5099031;28;20036;-83
2022/03/02 16:56:47;;;;;;;18.97;11.37;;;;;;;9.09;41.71;102025.81;5099865;28;20047;-83
2022/03/02 16:59:12;;;;;;;18.63;12.10;;;;;;;8.99;41.52;102033.25;5095223;28;20097;-81
2022/03/02 17:01:38;;;;;;;18.00;11.87;;;;;;;8.84;43.12;102035.81;5106649;28;20036;-81
2022/03/02 17:04:05;;;;;;;17.63;11.40;;;;;;;8.70;42.84;102031.97;5095316;28;20043;-84
2022/03/02 17:06:48;;;;;;;19.40;12.33;;;;;;;8.58;43.88;102032.31;5101687;28;20031;-83
2022/03/02 17:09:15;;;;;;;21.37;12.40;;;;;;;8.38;46.59;102033.63;5088086;28;20341;-84
2022/03/02 17:11:41;;;;;;;20.10;12.57;;;;;;;8.25;46.82;102036.81;5084582;28;20036;-84
2022/03/02 17:14:07;;;;;;;20.47;12.70;;;;;;;8.02;48.21;102034.75;5099799;28;20032;-83
2022/03/02 17:16:32;;;;;;;21.63;13.03;;;;;;;7.87;48.93;102037.25;5099107;28;20789;-84
2022/03/02 17:18:58;;;;;;;21.03;12.83;;;;;;;7.75;48.71;102046.66;5074082;28;20438;-81
2022/03/02 17:21:24;;;;;;;20.40;12.33;;;;;;;7.57;49.48;102031.41;5092391;28;20027;-84
2022/03/02 17:23:49;;;;;;;20.67;12.63;;;;;;;7.53;48.71;102035.44;5093595;28;20036;-81
2022/03/02 17:26:15;;;;;;;21.17;13.50;;;;;;;7.43;48.52;102042.84;5068022;28;20035;-87
2022/03/02 17:28:40;;;;;;;19.70;12.37;;;;;;;7.31;49.10;102039.56;5093263;28;20027;-82
2022/03/02 17:31:06;;;;;;;21.13;12.67;;;;;;;7.23;49.61;102040.34;5072555;28;20058;-82
2022/03/02 17:33:34;;;;;;;21.63;12.70;;;;;;;7.14;49.03;102035.94;5078231;28;20028;-86
2022/03/02 17:36:00;;;;;;;21.33;13.17;;;;;;;7.01;49.66;102027.44;5082394;28;20035;-86
2022/03/02 17:38:26;;;;;;;21.93;13.13;;;;;;;6.96;49.78;102032.47;5080489;28;20166;-85
2022/03/02 17:40:52;;;;;;;21.17;13.40;;;;;;;6.87;50.52;102034.28;5082609;28;20119;-85
2022/03/02 17:43:17;;;;;;;22.00;13.50;;;;;;;6.75;51.22;102036.38;5077632;28;20036;-82
2022/03/02 17:45:43;;;;;;;20.70;13.23;;;;;;;6.68;51.45;102038.84;5071313;28;20071;-82
2022/03/02 17:48:08;;;;;;;21.23;13.50;;;;;;;6.57;51.38;102037.25;5075441;28;20056;-82
2022/03/02 17:50:35;;;;;;;20.60;13.77;;;;;;;6.48;51.73;102035.47;5072131;28;20028;-86
2022/03/02 17:53:00;;;;;;;21.37;13.57;;;;;;;6.43;51.25;102040.47;5080025;28;20970;-86
2022/03/02 17:55:26;;;;;;;20.63;13.43;;;;;;;6.35;51.38;102037.72;5066324;28;20070;-85
2022/03/02 17:57:51;;;;;;;21.53;13.53;;;;;;;6.25;52.38;102030.56;5096633;28;20028;-86
2022/03/02 18:00:17;;;;;;;22.40;14.03;;;;;;;6.14;52.72;102036.19;5079160;28;20034;-85
2022/03/02 18:02:43;;;;;;;20.60;13.13;;;;;;;6.06;53.70;102034.25;5061011;28;20036;-85
2022/03/02 18:05:09;;;;;;;23.70;14.17;;;;;;;6.00;53.60;102039.41;5076084;28;20024;-85
2022/03/02 18:07:35;;;;;;;23.60;13.80;;;;;;;5.86;54.21;102038.03;5074393;28;20403;-84
2022/03/02 18:10:02;;;;;;;21.90;13.17;;;;;;;5.80;52.60;102038.66;5067683;28;20029;-82
2022/03/02 18:12:28;;;;;;;20.80;13.40;;;;;;;5.70;54.34;102033.34;5064900;28;20033;-81
2022/03/02 18:14:54;;;;;;;22.23;13.73;;;;;;;5.71;52.30;102035.00;5067983;28;20031;-85
2022/03/02 18:17:20;;;;;;;20.33;12.87;;;;;;;5.63;53.48;102033.09;5074051;28;20028;-85
2022/03/02 18:19:45;;;;;;;23.03;14.03;;;;;;;5.60;52.64;102037.91;5068463;28;20036;-82
2022/03/02 18:22:13;;;;;;;22.37;12.87;;;;;;;5.53;52.63;102027.75;5046996;28;20032;-86
2022/03/02 18:24:39;;;;;;;22.03;14.87;;;;;;;5.48;53.11;102030.06;5064447;28;20107;-85
2022/03/02 18:27:05;;;;;;;21.97;13.67;;;;;;;5.42;53.53;102030.63;5065745;28;20037;-84
2022/03/02 18:29:32;;;;;;;21.27;13.30;;;;;;;5.33;53.67;102023.47;5064318;28;20027;-85
2022/03/02 18:32:02;;;;;;;21.70;13.53;;;;;;;5.29;54.71;102024.75;5067032;28;20081;-85
2022/03/02 18:34:28;;;;;;;22.17;13.60;;;;;;;5.28;53.90;102028.47;5067524;28;20035;-86
2022/03/02 18:36:55;;;;;;;20.33;12.87;;;;;;;5.21;53.24;102028.19;5067375;28;20033;-86
2022/03/02 18:39:27;;;;;;;20.20;12.93;;;;;;;5.17;52.89;102027.63;5068847;28;20067;-86
2022/03/02 18:41:53;;;;;;;22.70;13.93;;;;;;;4.99;55.44;102026.69;5067214;28;20302;-85
2022/03/02 18:44:21;;;;;;;21.47;13.17;;;;;;;5.01;53.65;102025.56;5066433;28;20028;-82
2022/03/02 18:46:47;;;;;;;21.17;13.40;;;;;;;4.97;54.09;102026.00;5075205;28;20981;-81
2022/03/02 18:49:17;;;;;;;22.43;13.70;;;;;;;4.86;56.71;102025.19;5075195;28;20116;-82
2022/03/02 18:51:43;;;;;;;21.00;13.10;;;;;;;4.85;53.97;102023.47;5080364;28;20045;-84
2022/03/02 18:54:09;;;;;;;22.87;13.63;;;;;;;4.83;54.39;102027.31;5076679;28;20024;-85
2022/03/02 18:56:34;;;;;;;20.70;13.03;;;;;;;4.71;55.19;102022.09;5072617;28;21612;-86
2022/03/02 18:59:02;;;;;;;22.53;14.23;;;;;;;4.72;53.78;102023.81;5055413;28;21071;-88
2022/03/02 19:01:29;;;;;;;20.83;13.33;;;;;;;4.62;54.77;102028.31;5070015;28;20143;-86
2022/03/02 19:03:55;;;;;;;21.27;13.70;;;;;;;4.59;54.46;102025.09;5073875;28;20033;-85
2022/03/02 19:06:21;;;;;;;21.57;14.43;;;;;;;4.50;55.07;102019.59;5071024;28;20439;-85
2022/03/02 19:08:46;;;;;;;21.93;14.27;;;;;;;4.45;54.87;102012.94;5056003;28;20024;-86
2022/03/02 19:11:12;;;;;;;20.13;12.90;;;;;;;4.41;54.44;102015.09;5073866;28;20489;-85
2022/03/02 19:13:38;;;;;;;22.67;14.43;;;;;;;4.38;55.09;102015.38;5068508;28;20462;-85
2022/03/02 19:16:06;;;;;;;21.17;13.53;;;;;;;4.30;55.22;102017.94;5068516;28;20031;-82
2022/03/02 19:18:31;;;;;;;21.80;13.63;;;;;;;4.21;55.59;102014.25;5069166;28;20052;-81
2022/03/02 19:20:57;;;;;;;21.40;14.30;;;;;;;4.19;55.51;102017.06;5086040;28;20310;-82
2022/03/02 19:23:25;;;;;;;20.87;12.77;;;;;;;4.09;55.89;102021.56;5052783;28;20093;-81
2022/03/02 19:25:52;;;;;;;22.23;13.27;;;;;;;4.05;57.54;102025.50;5069897;28;20032;-82
2022/03/02 19:28:18;;;;;;;22.00;13.87;;;;;;;3.95;57.64;102025.50;5056820;28;20232;-82
2022/03/02 19:30:44;;;;;;;21.90;13.93;;;;;;;3.86;58.02;102019.16;5069565;28;20027;-85
2022/03/02 19:33:10;;;;;;;20.93;13.77;;;;;;;3.88;56.77;102025.22;5068943;28;20126;-86
2022/03/02 19:35:35;;;;;;;21.70;13.43;;;;;;;3.87;56.22;102028.88;5040244;28;20935;-85
2022/03/02 19:39:54;;;;;;;21.17;13.50;;;;;;;3.83;57.22;102026.63;5070500;28;20028;-87
2022/03/02 19:40:47;;;;;;;23.07;13.67;;;;;;;3.76;56.77;102026.31;5058140;28;20041;-85
2022/03/02 19:43:15;;;;;;;20.53;12.70;;;;;;;3.63;57.39;102017.69;5069341;28;20035;-85
2022/03/02 19:45:41;;;;;;;20.77;13.20;;;;;;;3.69;56.59;102022.50;5054916;28;20454;-85
2022/03/02 19:48:09;;;;;;;22.70;13.43;;;;;;;3.60;58.67;102016.13;5072186;28;20032;-85
2022/03/02 19:50:38;;;;;;;23.27;14.63;;;;;;;3.62;58.28;102026.69;5072577;28;20121;-84
2022/03/02 19:53:05;;;;;;;21.87;14.00;;;;;;;3.57;58.72;102027.13;5056213;28;20029;-85
2022/03/02 19:55:33;;;;;;;22.33;15.00;;;;;;;3.50;57.71;102029.50;5071677;28;20502;-84
2022/03/02 19:58:00;;;;;;;22.87;14.03;;;;;;;3.40;58.30;102025.97;5071516;28;20054;-82
2022/03/02 20:00:26;;;;;;;21.63;14.20;;;;;;;3.40;57.97;102030.44;5068886;28;20767;-85
2022/03/02 20:02:52;;;;;;;24.50;15.43;;;;;;;3.32;60.11;102020.44;5072136;28;20050;-82
2022/03/02 20:05:17;;;;;;;21.50;14.17;;;;;;;3.29;60.82;102024.22;5037727;28;20110;-82
2022/03/02 20:07:43;;;;;;;23.33;15.10;;;;;;;3.20;59.07;102025.88;5087528;28;20066;-82
2022/03/02 20:10:09;;;;;;;24.03;14.73;;;;;;;3.25;57.32;102021.94;5055615;28;20027;-85
2022/03/02 20:12:35;;;;;;;22.23;14.80;;;;;;;3.19;57.80;102008.09;5072035;28;20027;-85
2022/03/02 20:15:00;;;;;;;23.23;15.23;;;;;;;3.22;58.89;102012.31;5070684;28;20028;-85
2022/03/02 20:17:27;;;;;;;21.13;14.63;;;;;;;3.19;58.60;102009.94;5068506;28;20093;-85
2022/03/02 20:19:55;;;;;;;25.33;16.23;;;;;;;3.20;58.63;102011.63;5071670;28;20032;-85
2022/03/02 20:22:21;;;;;;;22.87;14.40;;;;;;;3.16;57.83;102008.38;5071846;28;20040;-82
2022/03/02 20:24:47;;;;;;;23.30;14.43;;;;;;;3.15;59.12;102003.97;5069051;28;20464;-82
2022/03/02 20:27:12;;;;;;;22.87;15.37;;;;;;;3.15;59.58;102003.16;5069833;28;20054;-82
2022/03/02 20:29:38;;;;;;;23.80;14.70;;;;;;;3.19;59.35;102008.09;5089203;28;20082;-82
2022/03/02 20:32:08;;;;;;;23.07;15.20;;;;;;;3.09;59.16;102004.53;5068393;28;20032;-82
2022/03/02 20:34:34;;;;;;;24.13;14.97;;;;;;;3.09;58.05;102001.00;5071295;28;20032;-82
2022/03/02 20:36:59;;;;;;;22.37;14.80;;;;;;;3.07;58.91;102002.97;5049725;28;20043;-82
2022/03/02 20:39:25;;;;;;;22.87;14.57;;;;;;;3.06;59.22;102002.13;5069458;28;20113;-85
2022/03/02 20:41:51;;;;;;;22.93;15.40;;;;;;;3.04;59.10;102012.13;5054390;28;20048;-82
2022/03/02 20:44:18;;;;;;;24.40;15.90;;;;;;;2.89;60.18;101995.56;5052154;28;20492;-82
2022/03/02 20:46:43;;;;;;;23.67;16.03;;;;;;;2.99;59.67;102003.63;5070530;28;20039;-81
2022/03/02 20:49:10;;;;;;;25.27;15.83;;;;;;;2.97;59.92;102006.44;5071246;28;20412;-82
2022/03/02 20:51:36;;;;;;;23.43;16.17;;;;;;;3.03;59.48;102013.09;5070054;28;20039;-81
2022/03/02 20:54:01;;;;;;;23.53;15.50;;;;;;;3.01;58.73;102010.56;5071278;28;20036;-82
2022/03/02 20:56:26;;;;;;;23.33;15.57;;;;;;;3.06;58.61;102006.63;5067815;28;20036;-85
2022/03/02 20:58:52;;;;;;;25.20;15.90;;;;;;;2.98;59.54;102010.00;5068753;28;20032;-85
2022/03/02 21:01:17;;;;;;;23.87;14.63;;;;;;;2.99;58.68;102003.63;5055202;28;20040;-85
2022/03/02 21:03:44;;;;;;;24.10;16.30;;;;;;;2.94;60.55;102003.16;5055551;28;20085;-86
2022/03/02 21:06:11;;;;;;;24.37;15.60;;;;;;;2.99;57.67;102001.81;5074753;28;20028;-85
2022/03/02 21:08:37;;;;;;;23.57;14.83;;;;;;;2.97;59.78;102000.25;5072944;28;20387;-85
2022/03/02 21:11:03;;;;;;;24.67;15.13;;;;;;;2.98;58.63;101999.28;5072327;28;20139;-85
2022/03/02 21:13:31;;;;;;;26.80;18.00;;;;;;;2.99;58.90;101996.47;5058516;28;20040;-85
2022/03/02 21:15:56;;;;;;;22.93;15.00;;;;;;;2.97;59.51;101997.56;5073154;28;20518;-82
2022/03/02 21:18:22;;;;;;;23.67;15.57;;;;;;;2.94;59.35;101992.47;5073961;28;20111;-82
2022/03/02 21:20:47;;;;;;;22.70;15.43;;;;;;;2.95;59.74;102000.38;5069986;28;20464;-85
2022/03/02 21:23:17;;;;;;;26.13;15.90;;;;;;;2.92;59.89;101994.44;5073276;28;20500;-85
2022/03/02 21:25:44;;;;;;;23.70;15.83;;;;;;;2.82;59.93;101992.56;5058478;28;20183;-85
2022/03/02 21:28:09;;;;;;;23.43;16.23;;;;;;;2.83;60.18;101990.75;5072977;28;20546;-85
2022/03/02 21:30:35;;;;;;;24.50;15.80;;;;;;;2.82;59.69;101987.19;5071624;28;20115;-86
2022/03/02 21:33:00;;;;;;;23.97;15.47;;;;;;;2.78;59.13;101988.44;5057556;28;20028;-86
2022/03/02 21:35:25;;;;;;;25.07;15.77;;;;;;;2.70;60.62;101985.59;5055422;28;20032;-85
2022/03/02 21:37:51;;;;;;;23.33;15.03;;;;;;;2.68;60.14;101980.38;5071721;28;20028;-85
2022/03/02 21:40:16;;;;;;;21.87;14.93;;;;;;;2.67;60.02;101986.69;5057067;28;20035;-86
2022/03/02 21:42:44;;;;;;;22.63;15.17;;;;;;;2.66;59.88;101979.63;5074537;28;20134;-86
2022/03/02 21:45:10;;;;;;;23.13;15.33;;;;;;;2.67;59.61;101985.88;5090190;28;20146;-86
2022/03/02 21:47:36;;;;;;;21.87;14.87;;;;;;;2.62;60.42;101986.25;5058683;28;20035;-86
2022/03/02 21:50:02;;;;;;;22.60;14.53;;;;;;;2.57;60.16;101985.81;5070908;28;20563;-85
2022/03/02 21:52:28;;;;;;;23.90;15.03;;;;;;;2.58;60.18;101983.97;5072468;28;20035;-86
2022/03/02 21:54:53;;;;;;;23.47;14.83;;;;;;;2.55;60.71;101984.25;5074049;28;20442;-86
2022/03/02 21:57:19;;;;;;;23.13;15.93;;;;;;;2.52;60.50;101988.84;5070996;28;20502;-85
2022/03/02 21:59:46;;;;;;;23.07;15.50;;;;;;;2.44;61.77;101977.97;5069361;28;20036;-82
2022/03/02 22:02:12;;;;;;;24.77;16.37;;;;;;;2.43;62.03;101981.59;5073884;28;20031;-82
2022/03/02 22:04:37;;;;;;;22.30;14.93;;;;;;;2.45;59.59;101977.00;5060374;28;20027;-82
2022/03/02 22:07:03;;;;;;;22.10;15.17;;;;;;;2.40;61.14;101976.53;5058875;28;20036;-82
2022/03/02 22:09:29;;;;;;;22.87;15.13;;;;;;;2.42;60.35;101973.72;5074553;28;20539;-85
2022/03/02 22:11:54;;;;;;;22.03;14.93;;;;;;;2.41;60.42;101967.53;5089161;28;20114;-85
2022/03/02 22:14:19;;;;;;;26.13;14.90;;;;;;;2.33;60.04;101968.16;5057666;28;20058;-85
2022/03/02 22:16:45;;;;;;;23.30;14.80;;;;;;;2.36;60.40;101972.41;5042859;28;20035;-82
2022/03/02 22:19:10;;;;;;;23.47;15.17;;;;;;;2.35;59.63;101968.91;5071887;28;20058;-82
2022/03/02 22:21:36;;;;;;;22.23;14.90;;;;;;;2.31;60.06;101970.16;5074917;28;20409;-82
2022/03/02 22:24:01;;;;;;;22.33;14.67;;;;;;;2.28;59.80;101969.53;5073271;28;20681;-82
2022/03/02 22:26:27;;;;;;;22.20;14.80;;;;;;;2.29;60.18;101985.47;5071116;28;20024;-82
2022/03/02 22:28:52;;;;;;;24.67;15.50;;;;;;;2.22;60.54;101972.72;5057822;28;20137;-85
2022/03/02 22:31:18;;;;;;;23.00;14.93;;;;;;;2.18;60.78;101973.00;5041193;28;20114;-85
2022/03/02 22:33:43;;;;;;;25.43;15.43;;;;;;;2.18;60.76;101980.19;5089294;28;20032;-82
2022/03/02 22:36:08;;;;;;;24.33;14.80;;;;;;;2.11;61.86;101977.16;5057901;28;20068;-82
2022/03/02 22:38:34;;;;;;;22.67;14.30;;;;;;;2.11;60.64;101969.16;5053710;28;20422;-85
2022/03/02 22:40:59;;;;;;;22.33;14.60;;;;;;;2.09;61.27;101972.91;5073090;28;20510;-82
2022/03/02 22:43:25;;;;;;;22.70;14.57;;;;;;;2.05;61.94;101969.66;5057459;28;20036;-82
2022/03/02 22:45:50;;;;;;;22.47;14.47;;;;;;;2.00;61.50;101969.19;5055959;28;20028;-83
2022/03/02 22:48:15;;;;;;;24.37;14.97;;;;;;;2.00;61.81;101977.22;5054107;28;20028;-82
2022/03/02 22:50:41;;;;;;;22.13;14.33;;;;;;;1.99;61.47;101976.34;5069382;28;20062;-82
2022/03/02 22:53:06;;;;;;;23.03;15.27;;;;;;;1.95;63.02;101974.91;5072566;28;20105;-82
2022/03/02 22:55:32;;;;;;;25.43;15.60;;;;;;;1.85;62.48;101958.81;5072899;28;20031;-84
2022/03/02 22:57:58;;;;;;;22.30;15.27;;;;;;;1.85;62.55;101979.34;5054467;28;20057;-85
2022/03/02 23:00:27;;;;;;;34.33;14.93;;;;;;;1.85;62.30;101974.00;5069906;28;20522;-82
2022/03/02 23:02:54;;;;;;;21.60;14.53;;;;;;;1.76;62.76;101959.56;5070674;28;20032;-85
2022/03/02 23:16:16;;;;;;;24.52;15.95;;;;;;;1.66;62.90;101963.97;5071153;28;20182;-85
2022/03/02 23:18:41;;;;;;;23.83;15.90;;;;;;;1.65;63.09;101963.09;5039897;28;20500;-85
2022/03/02 23:21:07;;;;;;;24.20;14.60;;;;;;;1.63;62.12;101967.75;5056875;28;20036;-85
2022/03/02 23:23:33;;;;;;;23.77;15.77;;;;;;;1.59;63.81;101962.75;5071359;28;20039;-85
2022/03/02 23:25:58;;;;;;;26.17;16.10;;;;;;;1.51;63.79;101956.22;5071106;28;20313;-84
2022/03/02 23:28:24;;;;;;;22.80;15.10;;;;;;;1.49;63.88;101950.16;5055122;28;20028;-85
2022/03/02 23:30:49;;;;;;;23.30;14.47;;;;;;;1.52;62.74;101957.94;5073913;28;20039;-85
2022/03/02 23:33:15;;;;;;;23.83;14.73;;;;;;;1.51;62.16;101956.22;5073436;28;20032;-85
2022/03/02 23:35:40;;;;;;;23.20;14.47;;;;;;;1.53;61.33;101953.44;5052911;28;20171;-85
2022/03/02 23:38:06;;;;;;;22.77;14.53;;;;;;;1.58;62.52;101958.38;5069920;28;20119;-85
2022/03/02 23:40:32;;;;;;;21.83;14.57;;;;;;;1.61;61.65;101960.81;5071302;28;20387;-85
2022/03/02 23:42:58;;;;;;;22.17;14.60;;;;;;;1.56;62.08;101958.50;5071908;28;20020;-85
2022/03/02 23:45:24;;;;;;;24.43;15.13;;;;;;;1.63;60.81;101951.72;5072863;28;20028;-85
2022/03/02 23:47:49;;;;;;;22.87;14.40;;;;;;;1.66;60.66;101947.94;5055202;28;20372;-85
2022/03/02 23:50:14;;;;;;;23.53;14.80;;;;;;;1.67;61.11;101949.63;5070635;28;20276;-82
2022/03/02 23:52:40;;;;;;;22.60;15.07;;;;;;;1.72;60.68;101960.78;5053183;28;20536;-82
2022/03/02 23:55:07;;;;;;;22.20;14.80;;;;;;;1.73;60.46;101961.63;5069975;28;20032;-82
2022/03/02 23:57:32;;;;;;;22.83;15.43;;;;;;;1.60;61.96;101951.09;5069184;28;20541;-82
2022/03/02 23:59:58;;;;;;;23.40;15.00;;;;;;;1.63;61.21;101945.50;5072522;28;20051;-82
